sensor_id;sensor_type;location;lat;lon;timestamp;P1;durP1;ratioP1;P2;durP2;ratioP2
61525;SDS011;47394;41.366;-8.738;2022-10-17T00:01:19;9.77;;;2.78;;
61525;SDS011;47394;41.366;-8.738;2022-10-17T00:03:19;11.98;;;3.00;;
61525;SDS011;47394;41.366;-8.738;2022-10-17T00:05:20;12.35;;;3.20;;
61525;SDS011;47394;41.366;-8.738;2022-10-17T00:07:20;9.88;;;2.78;;
61525;SDS011;47394;41.366;-8.738;2022-10-17T00:09:21;19.50;;;3.92;;
61525;SDS011;47394;41.366;-8.738;2022-10-17T00:11:22;14.25;;;3.92;;
61525;SDS011;47394;41.366;-8.738;2022-10-17T00:13:23;19.27;;;3.67;;
61525;SDS011;47394;41.366;-8.738;2022-10-17T00:15:24;18.45;;;4.32;;
61525;SDS011;47394;41.366;-8.738;2022-10-17T00:17:24;17.35;;;4.60;;
61525;SDS011;47394;41.366;-8.738;2022-10-17T00:19:25;16.75;;;4.97;;
61525;SDS011;47394;41.366;-8.738;2022-10-17T00:21:25;12.00;;;4.63;;
61525;SDS011;47394;41.366;-8.738;2022-10-17T00:23:26;14.25;;;4.78;;
61525;SDS011;47394;41.366;-8.738;2022-10-17T00:25:27;18.67;;;5.22;;
61525;SDS011;47394;41.366;-8.738;2022-10-17T00:27:28;14.38;;;5.13;;
61525;SDS011;47394;41.366;-8.738;2022-10-17T00:29:28;12.45;;;5.15;;
61525;SDS011;47394;41.366;-8.738;2022-10-17T00:31:29;15.70;;;5.80;;
61525;SDS011;47394;41.366;-8.738;2022-10-17T00:33:30;19.98;;;6.50;;
61525;SDS011;47394;41.366;-8.738;2022-10-17T00:35:31;20.35;;;6.28;;
61525;SDS011;47394;41.366;-8.738;2022-10-17T00:37:32;17.10;;;6.50;;
61525;SDS011;47394;41.366;-8.738;2022-10-17T00:39:32;14.35;;;5.50;;
61525;SDS011;47394;41.366;-8.738;2022-10-17T00:41:33;21.05;;;6.07;;
61525;SDS011;47394;41.366;-8.738;2022-10-17T00:45:53;17.48;;;5.13;;
61525;SDS011;47394;41.366;-8.738;2022-10-17T00:47:55;12.48;;;5.15;;
61525;SDS011;47394;41.366;-8.738;2022-10-17T00:49:57;12.18;;;4.68;;
61525;SDS011;47394;41.366;-8.738;2022-10-17T00:52:02;16.40;;;5.18;;
61525;SDS011;47394;41.366;-8.738;2022-10-17T00:54:03;13.43;;;4.70;;
61525;SDS011;47394;41.366;-8.738;2022-10-17T00:56:04;21.50;;;5.47;;
61525;SDS011;47394;41.366;-8.738;2022-10-17T00:58:05;13.70;;;4.90;;
61525;SDS011;47394;41.366;-8.738;2022-10-17T01:00:06;13.55;;;4.47;;
61525;SDS011;47394;41.366;-8.738;2022-10-17T01:02:10;13.32;;;4.80;;
61525;SDS011;47394;41.366;-8.738;2022-10-17T01:04:12;11.93;;;4.63;;
61525;SDS011;47394;41.366;-8.738;2022-10-17T01:06:13;19.05;;;5.30;;
61525;SDS011;47394;41.366;-8.738;2022-10-17T01:08:14;13.38;;;5.22;;
61525;SDS011;47394;41.366;-8.738;2022-10-17T01:10:15;15.07;;;5.25;;
61525;SDS011;47394;41.366;-8.738;2022-10-17T01:12:20;17.23;;;5.40;;
61525;SDS011;47394;41.366;-8.738;2022-10-17T01:27:37;13.10;;;5.75;;
61525;SDS011;47394;41.366;-8.738;2022-10-17T01:34:08;20.08;;;6.82;;
61525;SDS011;47394;41.366;-8.738;2022-10-17T01:36:21;18.65;;;6.07;;
61525;SDS011;47394;41.366;-8.738;2022-10-17T01:38:25;23.58;;;5.90;;
61525;SDS011;47394;41.366;-8.738;2022-10-17T01:40:28;12.27;;;5.18;;
61525;SDS011;47394;41.366;-8.738;2022-10-17T01:44:41;14.45;;;5.00;;
61525;SDS011;47394;41.366;-8.738;2022-10-17T01:46:45;13.15;;;4.43;;
61525;SDS011;47394;41.366;-8.738;2022-10-17T01:48:48;16.25;;;4.68;;
61525;SDS011;47394;41.366;-8.738;2022-10-17T01:53:10;14.10;;;4.47;;
61525;SDS011;47394;41.366;-8.738;2022-10-17T01:55:16;12.80;;;5.03;;
61525;SDS011;47394;41.366;-8.738;2022-10-17T01:57:20;13.63;;;4.75;;
61525;SDS011;47394;41.366;-8.738;2022-10-17T01:59:23;16.02;;;4.93;;
61525;SDS011;47394;41.366;-8.738;2022-10-17T02:01:24;10.93;;;4.22;;
61525;SDS011;47394;41.366;-8.738;2022-10-17T02:03:26;20.92;;;5.10;;
61525;SDS011;47394;41.366;-8.738;2022-10-17T02:05:29;13.27;;;4.57;;
61525;SDS011;47394;41.366;-8.738;2022-10-17T02:07:31;14.55;;;4.82;;
61525;SDS011;47394;41.366;-8.738;2022-10-17T02:09:33;12.70;;;4.40;;
61525;SDS011;47394;41.366;-8.738;2022-10-17T02:11:34;9.23;;;4.30;;
61525;SDS011;47394;41.366;-8.738;2022-10-17T02:13:57;12.20;;;4.53;;
61525;SDS011;47394;41.366;-8.738;2022-10-17T02:16:06;12.10;;;4.65;;
61525;SDS011;47394;41.366;-8.738;2022-10-17T02:22:39;16.42;;;4.03;;
61525;SDS011;47394;41.366;-8.738;2022-10-17T02:24:46;9.00;;;4.55;;
61525;SDS011;47394;41.366;-8.738;2022-10-17T02:26:51;15.13;;;4.57;;
61525;SDS011;47394;41.366;-8.738;2022-10-17T02:31:06;13.65;;;4.45;;
61525;SDS011;47394;41.366;-8.738;2022-10-17T02:35:24;11.02;;;4.13;;
61525;SDS011;47394;41.366;-8.738;2022-10-17T02:39:26;13.57;;;3.53;;
61525;SDS011;47394;41.366;-8.738;2022-10-17T02:41:30;7.78;;;3.78;;
61525;SDS011;47394;41.366;-8.738;2022-10-17T02:43:30;9.70;;;4.30;;
61525;SDS011;47394;41.366;-8.738;2022-10-17T02:45:32;15.13;;;4.85;;
61525;SDS011;47394;41.366;-8.738;2022-10-17T02:47:42;12.63;;;4.35;;
61525;SDS011;47394;41.366;-8.738;2022-10-17T02:49:51;10.10;;;4.18;;
61525;SDS011;47394;41.366;-8.738;2022-10-17T02:56:17;8.98;;;4.25;;
61525;SDS011;47394;41.366;-8.738;2022-10-17T02:58:23;15.40;;;5.03;;
61525;SDS011;47394;41.366;-8.738;2022-10-17T03:00:24;15.73;;;4.00;;
61525;SDS011;47394;41.366;-8.738;2022-10-17T03:02:25;11.95;;;4.30;;
61525;SDS011;47394;41.366;-8.738;2022-10-17T03:04:26;16.23;;;4.53;;
61525;SDS011;47394;41.366;-8.738;2022-10-17T03:06:27;12.10;;;4.03;;
61525;SDS011;47394;41.366;-8.738;2022-10-17T03:08:28;11.38;;;4.28;;
61525;SDS011;47394;41.366;-8.738;2022-10-17T03:10:29;9.10;;;3.70;;
61525;SDS011;47394;41.366;-8.738;2022-10-17T03:12:31;9.07;;;4.13;;
61525;SDS011;47394;41.366;-8.738;2022-10-17T03:14:31;11.02;;;3.72;;
61525;SDS011;47394;41.366;-8.738;2022-10-17T03:16:32;7.45;;;3.63;;
61525;SDS011;47394;41.366;-8.738;2022-10-17T03:18:33;11.60;;;3.90;;
61525;SDS011;47394;41.366;-8.738;2022-10-17T03:20:35;8.32;;;3.70;;
61525;SDS011;47394;41.366;-8.738;2022-10-17T03:22:35;7.50;;;3.35;;
61525;SDS011;47394;41.366;-8.738;2022-10-17T03:24:37;8.77;;;3.60;;
61525;SDS011;47394;41.366;-8.738;2022-10-17T03:26:38;7.15;;;3.42;;
61525;SDS011;47394;41.366;-8.738;2022-10-17T03:28:40;6.70;;;3.15;;
61525;SDS011;47394;41.366;-8.738;2022-10-17T03:30:41;9.80;;;4.32;;
61525;SDS011;47394;41.366;-8.738;2022-10-17T03:32:42;10.73;;;3.70;;
61525;SDS011;47394;41.366;-8.738;2022-10-17T03:34:42;19.80;;;3.95;;
61525;SDS011;47394;41.366;-8.738;2022-10-17T03:36:44;11.48;;;3.70;;
61525;SDS011;47394;41.366;-8.738;2022-10-17T03:38:45;10.07;;;3.33;;
61525;SDS011;47394;41.366;-8.738;2022-10-17T03:40:53;8.05;;;3.60;;
61525;SDS011;47394;41.366;-8.738;2022-10-17T03:42:53;9.43;;;3.92;;
61525;SDS011;47394;41.366;-8.738;2022-10-17T03:44:54;13.30;;;3.50;;
61525;SDS011;47394;41.366;-8.738;2022-10-17T03:46:55;14.77;;;4.10;;
61525;SDS011;47394;41.366;-8.738;2022-10-17T03:48:56;17.60;;;4.45;;
61525;SDS011;47394;41.366;-8.738;2022-10-17T03:50:57;21.65;;;5.57;;
61525;SDS011;47394;41.366;-8.738;2022-10-17T03:52:58;19.48;;;6.07;;
61525;SDS011;47394;41.366;-8.738;2022-10-17T03:54:58;32.03;;;7.07;;
61525;SDS011;47394;41.366;-8.738;2022-10-17T03:56:59;33.72;;;6.63;;
61525;SDS011;47394;41.366;-8.738;2022-10-17T03:58:59;23.85;;;6.15;;
61525;SDS011;47394;41.366;-8.738;2022-10-17T04:01:07;23.60;;;6.28;;
61525;SDS011;47394;41.366;-8.738;2022-10-17T04:03:08;19.85;;;5.20;;
61525;SDS011;47394;41.366;-8.738;2022-10-17T04:05:10;19.83;;;5.75;;
61525;SDS011;47394;41.366;-8.738;2022-10-17T04:07:10;26.00;;;5.80;;
61525;SDS011;47394;41.366;-8.738;2022-10-17T04:09:15;19.67;;;6.13;;
61525;SDS011;47394;41.366;-8.738;2022-10-17T04:11:39;13.00;;;5.20;;
61525;SDS011;47394;41.366;-8.738;2022-10-17T04:13:40;21.08;;;5.95;;
61525;SDS011;47394;41.366;-8.738;2022-10-17T04:15:41;24.52;;;6.03;;
61525;SDS011;47394;41.366;-8.738;2022-10-17T04:17:42;24.92;;;6.68;;
61525;SDS011;47394;41.366;-8.738;2022-10-17T04:19:42;33.28;;;7.75;;
61525;SDS011;47394;41.366;-8.738;2022-10-17T04:21:43;30.48;;;7.28;;
61525;SDS011;47394;41.366;-8.738;2022-10-17T04:23:44;25.10;;;7.28;;
61525;SDS011;47394;41.366;-8.738;2022-10-17T04:25:56;32.53;;;8.13;;
61525;SDS011;47394;41.366;-8.738;2022-10-17T04:27:58;34.63;;;8.90;;
61525;SDS011;47394;41.366;-8.738;2022-10-17T04:29:59;34.08;;;8.50;;
61525;SDS011;47394;41.366;-8.738;2022-10-17T04:31:59;30.77;;;7.15;;
61525;SDS011;47394;41.366;-8.738;2022-10-17T04:34:13;47.05;;;9.23;;
61525;SDS011;47394;41.366;-8.738;2022-10-17T04:36:17;40.65;;;8.23;;
61525;SDS011;47394;41.366;-8.738;2022-10-17T04:38:18;43.00;;;7.82;;
61525;SDS011;47394;41.366;-8.738;2022-10-17T04:40:19;33.72;;;8.40;;
61525;SDS011;47394;41.366;-8.738;2022-10-17T04:42:20;20.27;;;6.32;;
61525;SDS011;47394;41.366;-8.738;2022-10-17T04:44:22;18.08;;;7.05;;
61525;SDS011;47394;41.366;-8.738;2022-10-17T04:46:25;32.88;;;6.78;;
61525;SDS011;47394;41.366;-8.738;2022-10-17T04:48:26;28.85;;;6.63;;
61525;SDS011;47394;41.366;-8.738;2022-10-17T04:50:27;25.77;;;6.63;;
61525;SDS011;47394;41.366;-8.738;2022-10-17T04:52:46;22.95;;;7.07;;
61525;SDS011;47394;41.366;-8.738;2022-10-17T04:54:47;24.38;;;5.93;;
61525;SDS011;47394;41.366;-8.738;2022-10-17T04:56:47;22.73;;;5.88;;
61525;SDS011;47394;41.366;-8.738;2022-10-17T04:58:48;20.75;;;6.43;;
61525;SDS011;47394;41.366;-8.738;2022-10-17T05:00:49;21.42;;;5.68;;
61525;SDS011;47394;41.366;-8.738;2022-10-17T05:03:00;18.50;;;5.53;;
61525;SDS011;47394;41.366;-8.738;2022-10-17T05:05:02;30.55;;;5.95;;
61525;SDS011;47394;41.366;-8.738;2022-10-17T05:07:02;23.23;;;6.65;;
61525;SDS011;47394;41.366;-8.738;2022-10-17T05:09:23;23.60;;;7.15;;
61525;SDS011;47394;41.366;-8.738;2022-10-17T05:11:25;20.13;;;6.43;;
61525;SDS011;47394;41.366;-8.738;2022-10-17T05:13:26;28.90;;;7.07;;
61525;SDS011;47394;41.366;-8.738;2022-10-17T05:15:26;31.58;;;6.90;;
61525;SDS011;47394;41.366;-8.738;2022-10-17T05:17:28;24.42;;;6.65;;
61525;SDS011;47394;41.366;-8.738;2022-10-17T05:19:29;23.02;;;6.47;;
61525;SDS011;47394;41.366;-8.738;2022-10-17T05:21:30;22.15;;;5.78;;
61525;SDS011;47394;41.366;-8.738;2022-10-17T05:23:30;16.73;;;6.65;;
61525;SDS011;47394;41.366;-8.738;2022-10-17T05:25:33;38.80;;;7.32;;
61525;SDS011;47394;41.366;-8.738;2022-10-17T05:27:33;30.23;;;7.03;;
61525;SDS011;47394;41.366;-8.738;2022-10-17T05:29:35;30.17;;;7.13;;
61525;SDS011;47394;41.366;-8.738;2022-10-17T05:31:44;30.48;;;7.75;;
61525;SDS011;47394;41.366;-8.738;2022-10-17T05:33:46;25.95;;;6.72;;
61525;SDS011;47394;41.366;-8.738;2022-10-17T05:35:47;27.15;;;7.45;;
61525;SDS011;47394;41.366;-8.738;2022-10-17T05:37:49;30.83;;;6.88;;
61525;SDS011;47394;41.366;-8.738;2022-10-17T05:39:51;24.13;;;6.18;;
61525;SDS011;47394;41.366;-8.738;2022-10-17T05:41:52;18.65;;;6.00;;
61525;SDS011;47394;41.366;-8.738;2022-10-17T05:43:52;28.45;;;6.30;;
61525;SDS011;47394;41.366;-8.738;2022-10-17T05:46:05;19.42;;;5.85;;
61525;SDS011;47394;41.366;-8.738;2022-10-17T05:48:07;28.05;;;5.53;;
61525;SDS011;47394;41.366;-8.738;2022-10-17T05:50:08;21.50;;;6.32;;
61525;SDS011;47394;41.366;-8.738;2022-10-17T05:52:24;27.15;;;5.68;;
61525;SDS011;47394;41.366;-8.738;2022-10-17T05:54:35;24.08;;;6.45;;
61525;SDS011;47394;41.366;-8.738;2022-10-17T05:56:36;24.92;;;6.43;;
61525;SDS011;47394;41.366;-8.738;2022-10-17T05:58:40;36.22;;;6.22;;
61525;SDS011;47394;41.366;-8.738;2022-10-17T06:00:43;34.58;;;6.72;;
61525;SDS011;47394;41.366;-8.738;2022-10-17T06:02:44;30.73;;;6.65;;
61525;SDS011;47394;41.366;-8.738;2022-10-17T06:04:49;40.42;;;7.05;;
61525;SDS011;47394;41.366;-8.738;2022-10-17T06:06:51;42.45;;;7.55;;
61525;SDS011;47394;41.366;-8.738;2022-10-17T06:08:52;36.63;;;8.35;;
61525;SDS011;47394;41.366;-8.738;2022-10-17T06:10:59;39.90;;;7.65;;
61525;SDS011;47394;41.366;-8.738;2022-10-17T06:12:59;45.28;;;9.48;;
61525;SDS011;47394;41.366;-8.738;2022-10-17T06:15:00;44.10;;;9.32;;
61525;SDS011;47394;41.366;-8.738;2022-10-17T06:17:01;59.30;;;10.82;;
61525;SDS011;47394;41.366;-8.738;2022-10-17T06:19:01;35.40;;;8.15;;
61525;SDS011;47394;41.366;-8.738;2022-10-17T06:21:03;41.35;;;9.57;;
61525;SDS011;47394;41.366;-8.738;2022-10-17T06:23:05;42.97;;;8.70;;
61525;SDS011;47394;41.366;-8.738;2022-10-17T06:25:31;28.85;;;7.50;;
61525;SDS011;47394;41.366;-8.738;2022-10-17T06:27:32;31.30;;;6.65;;
61525;SDS011;47394;41.366;-8.738;2022-10-17T06:29:33;36.45;;;7.97;;
61525;SDS011;47394;41.366;-8.738;2022-10-17T06:31:34;32.40;;;7.57;;
61525;SDS011;47394;41.366;-8.738;2022-10-17T06:33:35;37.90;;;9.18;;
61525;SDS011;47394;41.366;-8.738;2022-10-17T06:35:36;41.67;;;8.75;;
61525;SDS011;47394;41.366;-8.738;2022-10-17T06:37:37;32.08;;;7.68;;
61525;SDS011;47394;41.366;-8.738;2022-10-17T06:39:42;34.05;;;7.22;;
61525;SDS011;47394;41.366;-8.738;2022-10-17T06:41:48;31.73;;;7.28;;
61525;SDS011;47394;41.366;-8.738;2022-10-17T06:43:52;23.13;;;6.30;;
61525;SDS011;47394;41.366;-8.738;2022-10-17T06:46:04;22.88;;;6.25;;
61525;SDS011;47394;41.366;-8.738;2022-10-17T06:48:10;24.75;;;5.55;;
61525;SDS011;47394;41.366;-8.738;2022-10-17T06:50:23;24.52;;;5.68;;
61525;SDS011;47394;41.366;-8.738;2022-10-17T06:52:38;21.13;;;5.65;;
61525;SDS011;47394;41.366;-8.738;2022-10-17T06:54:57;26.55;;;6.10;;
61525;SDS011;47394;41.366;-8.738;2022-10-17T06:57:06;18.13;;;5.80;;
61525;SDS011;47394;41.366;-8.738;2022-10-17T06:59:33;15.68;;;5.53;;
61525;SDS011;47394;41.366;-8.738;2022-10-17T07:01:42;21.48;;;6.40;;
61525;SDS011;47394;41.366;-8.738;2022-10-17T07:03:45;16.73;;;6.72;;
61525;SDS011;47394;41.366;-8.738;2022-10-17T07:05:50;17.13;;;6.20;;
61525;SDS011;47394;41.366;-8.738;2022-10-17T07:07:50;16.02;;;6.22;;
61525;SDS011;47394;41.366;-8.738;2022-10-17T07:09:51;18.40;;;7.03;;
61525;SDS011;47394;41.366;-8.738;2022-10-17T07:11:53;22.97;;;7.40;;
61525;SDS011;47394;41.366;-8.738;2022-10-17T07:13:53;26.67;;;6.65;;
61525;SDS011;47394;41.366;-8.738;2022-10-17T07:15:56;22.98;;;7.30;;
61525;SDS011;47394;41.366;-8.738;2022-10-17T07:18:02;17.13;;;6.55;;
61525;SDS011;47394;41.366;-8.738;2022-10-17T07:20:02;19.45;;;7.07;;
61525;SDS011;47394;41.366;-8.738;2022-10-17T07:22:06;28.92;;;7.65;;
61525;SDS011;47394;41.366;-8.738;2022-10-17T07:24:07;21.42;;;6.53;;
61525;SDS011;47394;41.366;-8.738;2022-10-17T07:26:09;24.67;;;6.95;;
61525;SDS011;47394;41.366;-8.738;2022-10-17T07:28:12;19.70;;;7.10;;
61525;SDS011;47394;41.366;-8.738;2022-10-17T07:30:14;30.47;;;7.87;;
61525;SDS011;47394;41.366;-8.738;2022-10-17T07:32:26;28.15;;;7.35;;
61525;SDS011;47394;41.366;-8.738;2022-10-17T07:34:26;26.05;;;7.20;;
61525;SDS011;47394;41.366;-8.738;2022-10-17T07:36:30;26.88;;;8.10;;
61525;SDS011;47394;41.366;-8.738;2022-10-17T07:38:32;21.48;;;7.10;;
61525;SDS011;47394;41.366;-8.738;2022-10-17T07:40:33;28.23;;;7.10;;
61525;SDS011;47394;41.366;-8.738;2022-10-17T07:42:36;29.80;;;7.68;;
61525;SDS011;47394;41.366;-8.738;2022-10-17T07:44:37;29.27;;;8.80;;
61525;SDS011;47394;41.366;-8.738;2022-10-17T07:46:38;22.98;;;8.18;;
61525;SDS011;47394;41.366;-8.738;2022-10-17T07:48:39;23.27;;;7.68;;
61525;SDS011;47394;41.366;-8.738;2022-10-17T07:50:41;32.70;;;9.57;;
61525;SDS011;47394;41.366;-8.738;2022-10-17T07:52:41;25.17;;;8.13;;
61525;SDS011;47394;41.366;-8.738;2022-10-17T07:54:42;25.60;;;7.43;;
61525;SDS011;47394;41.366;-8.738;2022-10-17T07:56:42;25.92;;;7.60;;
61525;SDS011;47394;41.366;-8.738;2022-10-17T07:58:43;23.10;;;6.50;;
61525;SDS011;47394;41.366;-8.738;2022-10-17T08:00:44;23.45;;;7.93;;
61525;SDS011;47394;41.366;-8.738;2022-10-17T08:02:47;23.60;;;7.45;;
61525;SDS011;47394;41.366;-8.738;2022-10-17T08:04:48;22.20;;;7.28;;
61525;SDS011;47394;41.366;-8.738;2022-10-17T08:06:48;22.65;;;7.18;;
61525;SDS011;47394;41.366;-8.738;2022-10-17T08:08:49;33.33;;;7.80;;
61525;SDS011;47394;41.366;-8.738;2022-10-17T08:10:49;17.70;;;7.53;;
61525;SDS011;47394;41.366;-8.738;2022-10-17T08:12:50;18.73;;;6.38;;
61525;SDS011;47394;41.366;-8.738;2022-10-17T08:14:50;24.90;;;7.55;;
61525;SDS011;47394;41.366;-8.738;2022-10-17T08:16:53;27.60;;;7.15;;
61525;SDS011;47394;41.366;-8.738;2022-10-17T08:18:53;19.33;;;6.50;;
61525;SDS011;47394;41.366;-8.738;2022-10-17T08:20:54;20.77;;;6.18;;
61525;SDS011;47394;41.366;-8.738;2022-10-17T08:22:58;24.38;;;7.43;;
61525;SDS011;47394;41.366;-8.738;2022-10-17T08:24:58;17.38;;;6.72;;
61525;SDS011;47394;41.366;-8.738;2022-10-17T08:26:59;18.60;;;6.80;;
61525;SDS011;47394;41.366;-8.738;2022-10-17T08:29:00;21.13;;;6.38;;
61525;SDS011;47394;41.366;-8.738;2022-10-17T08:31:01;14.75;;;6.10;;
61525;SDS011;47394;41.366;-8.738;2022-10-17T08:33:01;17.85;;;6.15;;
61525;SDS011;47394;41.366;-8.738;2022-10-17T08:35:02;23.25;;;6.85;;
61525;SDS011;47394;41.366;-8.738;2022-10-17T08:37:02;20.00;;;6.72;;
61525;SDS011;47394;41.366;-8.738;2022-10-17T08:39:03;22.20;;;7.78;;
61525;SDS011;47394;41.366;-8.738;2022-10-17T08:41:06;20.02;;;7.18;;
61525;SDS011;47394;41.366;-8.738;2022-10-17T08:47:21;21.45;;;8.02;;
61525;SDS011;47394;41.366;-8.738;2022-10-17T08:49:35;17.42;;;7.82;;
61525;SDS011;47394;41.366;-8.738;2022-10-17T08:51:38;22.63;;;8.35;;
61525;SDS011;47394;41.366;-8.738;2022-10-17T08:53:57;18.30;;;7.05;;
61525;SDS011;47394;41.366;-8.738;2022-10-17T08:56:17;32.00;;;7.25;;
61525;SDS011;47394;41.366;-8.738;2022-10-17T09:00:21;22.55;;;7.85;;
61525;SDS011;47394;41.366;-8.738;2022-10-17T09:07:10;18.77;;;7.13;;
61525;SDS011;47394;41.366;-8.738;2022-10-17T09:19:38;17.63;;;9.07;;
61525;SDS011;47394;41.366;-8.738;2022-10-17T09:23:56;22.30;;;8.38;;
61525;SDS011;47394;41.366;-8.738;2022-10-17T09:25:59;22.02;;;8.00;;
61525;SDS011;47394;41.366;-8.738;2022-10-17T09:28:09;22.00;;;8.23;;
61525;SDS011;47394;41.366;-8.738;2022-10-17T09:30:22;37.50;;;9.18;;
61525;SDS011;47394;41.366;-8.738;2022-10-17T09:32:24;28.83;;;10.23;;
61525;SDS011;47394;41.366;-8.738;2022-10-17T09:34:26;45.40;;;11.05;;
61525;SDS011;47394;41.366;-8.738;2022-10-17T09:36:28;57.30;;;13.38;;
61525;SDS011;47394;41.366;-8.738;2022-10-17T09:38:33;56.05;;;12.52;;
61525;SDS011;47394;41.366;-8.738;2022-10-17T09:40:35;47.28;;;11.75;;
61525;SDS011;47394;41.366;-8.738;2022-10-17T09:42:36;40.92;;;11.38;;
61525;SDS011;47394;41.366;-8.738;2022-10-17T09:49:18;46.55;;;11.95;;
61525;SDS011;47394;41.366;-8.738;2022-10-17T09:51:21;36.55;;;9.95;;
61525;SDS011;47394;41.366;-8.738;2022-10-17T09:53:44;38.80;;;10.15;;
61525;SDS011;47394;41.366;-8.738;2022-10-17T09:55:50;48.47;;;11.30;;
61525;SDS011;47394;41.366;-8.738;2022-10-17T09:57:58;29.95;;;9.82;;
61525;SDS011;47394;41.366;-8.738;2022-10-17T10:00:00;53.08;;;11.02;;
61525;SDS011;47394;41.366;-8.738;2022-10-17T10:02:22;43.90;;;11.43;;
61525;SDS011;47394;41.366;-8.738;2022-10-17T10:04:21;45.83;;;11.05;;
61525;SDS011;47394;41.366;-8.738;2022-10-17T10:06:22;57.15;;;12.00;;
61525;SDS011;47394;41.366;-8.738;2022-10-17T10:08:22;39.95;;;11.27;;
61525;SDS011;47394;41.366;-8.738;2022-10-17T10:10:26;46.05;;;11.15;;
61525;SDS011;47394;41.366;-8.738;2022-10-17T10:12:28;38.20;;;9.98;;
61525;SDS011;47394;41.366;-8.738;2022-10-17T10:14:30;45.03;;;11.75;;
61525;SDS011;47394;41.366;-8.738;2022-10-17T10:16:34;40.63;;;10.07;;
61525;SDS011;47394;41.366;-8.738;2022-10-17T10:18:40;38.00;;;10.02;;
61525;SDS011;47394;41.366;-8.738;2022-10-17T10:20:41;43.30;;;10.90;;
61525;SDS011;47394;41.366;-8.738;2022-10-17T10:22:55;35.90;;;9.52;;
61525;SDS011;47394;41.366;-8.738;2022-10-17T10:25:07;37.00;;;10.00;;
61525;SDS011;47394;41.366;-8.738;2022-10-17T10:27:12;41.90;;;11.18;;
61525;SDS011;47394;41.366;-8.738;2022-10-17T10:29:55;43.00;;;11.15;;
61525;SDS011;47394;41.366;-8.738;2022-10-17T10:31:37;44.92;;;11.20;;
61525;SDS011;47394;41.366;-8.738;2022-10-17T10:33:40;32.97;;;9.20;;
61525;SDS011;47394;41.366;-8.738;2022-10-17T10:35:41;39.30;;;11.50;;
61525;SDS011;47394;41.366;-8.738;2022-10-17T10:37:42;35.05;;;11.93;;
61525;SDS011;47394;41.366;-8.738;2022-10-17T10:39:53;36.30;;;10.52;;
61525;SDS011;47394;41.366;-8.738;2022-10-17T10:41:55;33.58;;;10.95;;
61525;SDS011;47394;41.366;-8.738;2022-10-17T10:43:55;28.48;;;10.65;;
61525;SDS011;47394;41.366;-8.738;2022-10-17T10:45:56;42.80;;;10.98;;
61525;SDS011;47394;41.366;-8.738;2022-10-17T10:48:00;33.30;;;10.90;;
61525;SDS011;47394;41.366;-8.738;2022-10-17T10:50:16;45.45;;;11.98;;
61525;SDS011;47394;41.366;-8.738;2022-10-17T10:52:23;34.45;;;10.73;;
61525;SDS011;47394;41.366;-8.738;2022-10-17T10:54:33;37.08;;;11.55;;
61525;SDS011;47394;41.366;-8.738;2022-10-17T10:56:37;62.10;;;13.35;;
61525;SDS011;47394;41.366;-8.738;2022-10-17T10:58:46;67.07;;;13.75;;
61525;SDS011;47394;41.366;-8.738;2022-10-17T11:00:48;68.05;;;14.23;;
61525;SDS011;47394;41.366;-8.738;2022-10-17T11:03:00;67.80;;;13.73;;
61525;SDS011;47394;41.366;-8.738;2022-10-17T11:05:05;50.75;;;12.40;;
61525;SDS011;47394;41.366;-8.738;2022-10-17T11:07:20;55.42;;;13.07;;
61525;SDS011;47394;41.366;-8.738;2022-10-17T11:09:30;62.67;;;13.52;;
61525;SDS011;47394;41.366;-8.738;2022-10-17T11:11:33;76.72;;;15.68;;
61525;SDS011;47394;41.366;-8.738;2022-10-17T11:13:43;62.35;;;14.35;;
61525;SDS011;47394;41.366;-8.738;2022-10-17T11:15:47;65.90;;;14.30;;
61525;SDS011;47394;41.366;-8.738;2022-10-17T11:17:54;63.50;;;13.93;;
61525;SDS011;47394;41.366;-8.738;2022-10-17T11:20:02;69.40;;;14.40;;
61525;SDS011;47394;41.366;-8.738;2022-10-17T11:22:15;52.85;;;16.25;;
61525;SDS011;47394;41.366;-8.738;2022-10-17T11:24:27;66.07;;;16.58;;
61525;SDS011;47394;41.366;-8.738;2022-10-17T11:26:30;61.95;;;18.15;;
61525;SDS011;47394;41.366;-8.738;2022-10-17T11:28:31;52.17;;;17.67;;
61525;SDS011;47394;41.366;-8.738;2022-10-17T11:30:37;50.60;;;14.95;;
61525;SDS011;47394;41.366;-8.738;2022-10-17T11:32:46;64.95;;;14.82;;
61525;SDS011;47394;41.366;-8.738;2022-10-17T11:34:52;49.90;;;11.50;;
61525;SDS011;47394;41.366;-8.738;2022-10-17T11:36:56;42.38;;;11.55;;
61525;SDS011;47394;41.366;-8.738;2022-10-17T11:39:01;44.13;;;9.88;;
61525;SDS011;47394;41.366;-8.738;2022-10-17T11:41:03;47.20;;;9.43;;
61525;SDS011;47394;41.366;-8.738;2022-10-17T11:43:50;51.90;;;11.70;;
61525;SDS011;47394;41.366;-8.738;2022-10-17T11:45:25;51.28;;;11.05;;
61525;SDS011;47394;41.366;-8.738;2022-10-17T11:49:29;63.10;;;11.90;;
61525;SDS011;47394;41.366;-8.738;2022-10-17T11:51:35;76.88;;;13.57;;
61525;SDS011;47394;41.366;-8.738;2022-10-17T11:53:44;100.25;;;14.98;;
61525;SDS011;47394;41.366;-8.738;2022-10-17T11:55:46;85.05;;;15.13;;
61525;SDS011;47394;41.366;-8.738;2022-10-17T12:15:28;60.03;;;13.88;;
61525;SDS011;47394;41.366;-8.738;2022-10-17T12:17:30;59.70;;;12.20;;
61525;SDS011;47394;41.366;-8.738;2022-10-17T12:19:32;69.40;;;14.85;;
61525;SDS011;47394;41.366;-8.738;2022-10-17T12:24:01;79.78;;;14.70;;
61525;SDS011;47394;41.366;-8.738;2022-10-17T12:26:02;56.17;;;13.55;;
61525;SDS011;47394;41.366;-8.738;2022-10-17T12:28:11;58.95;;;13.75;;
61525;SDS011;47394;41.366;-8.738;2022-10-17T12:30:17;56.03;;;13.40;;
61525;SDS011;47394;41.366;-8.738;2022-10-17T12:32:18;46.28;;;11.38;;
61525;SDS011;47394;41.366;-8.738;2022-10-17T12:34:18;56.22;;;12.63;;
61525;SDS011;47394;41.366;-8.738;2022-10-17T12:38:27;68.38;;;13.45;;
61525;SDS011;47394;41.366;-8.738;2022-10-17T12:42:47;53.78;;;11.70;;
61525;SDS011;47394;41.366;-8.738;2022-10-17T12:44:48;47.30;;;10.43;;
61525;SDS011;47394;41.366;-8.738;2022-10-17T12:49:18;44.80;;;10.93;;
61525;SDS011;47394;41.366;-8.738;2022-10-17T12:51:19;42.00;;;10.07;;
61525;SDS011;47394;41.366;-8.738;2022-10-17T12:53:24;42.63;;;10.38;;
61525;SDS011;47394;41.366;-8.738;2022-10-17T12:55:28;39.67;;;11.05;;
61525;SDS011;47394;41.366;-8.738;2022-10-17T12:59:32;56.17;;;13.40;;
61525;SDS011;47394;41.366;-8.738;2022-10-17T13:01:33;46.47;;;11.70;;
61525;SDS011;47394;41.366;-8.738;2022-10-17T13:03:39;50.22;;;12.40;;
61525;SDS011;47394;41.366;-8.738;2022-10-17T13:05:47;53.72;;;12.55;;
61525;SDS011;47394;41.366;-8.738;2022-10-17T13:07:49;54.97;;;12.32;;
61525;SDS011;47394;41.366;-8.738;2022-10-17T13:09:51;49.67;;;12.68;;
61525;SDS011;47394;41.366;-8.738;2022-10-17T13:11:51;50.35;;;12.68;;
61525;SDS011;47394;41.366;-8.738;2022-10-17T13:13:53;60.38;;;12.65;;
61525;SDS011;47394;41.366;-8.738;2022-10-17T13:15:54;38.65;;;11.10;;
61525;SDS011;47394;41.366;-8.738;2022-10-17T13:17:57;55.42;;;10.68;;
61525;SDS011;47394;41.366;-8.738;2022-10-17T13:19:57;41.38;;;10.35;;
61525;SDS011;47394;41.366;-8.738;2022-10-17T13:21:59;58.03;;;11.43;;
61525;SDS011;47394;41.366;-8.738;2022-10-17T13:24:18;44.30;;;9.68;;
61525;SDS011;47394;41.366;-8.738;2022-10-17T13:26:28;36.03;;;9.30;;
61525;SDS011;47394;41.366;-8.738;2022-10-17T13:28:28;41.72;;;10.18;;
61525;SDS011;47394;41.366;-8.738;2022-10-17T13:30:30;40.50;;;9.73;;
61525;SDS011;47394;41.366;-8.738;2022-10-17T13:32:35;41.50;;;10.60;;
61525;SDS011;47394;41.366;-8.738;2022-10-17T13:34:36;61.22;;;11.15;;
61525;SDS011;47394;41.366;-8.738;2022-10-17T13:36:36;55.53;;;11.13;;
61525;SDS011;47394;41.366;-8.738;2022-10-17T13:38:37;62.53;;;11.45;;
61525;SDS011;47394;41.366;-8.738;2022-10-17T13:40:41;63.03;;;12.52;;